sensor_id;sensor_type;location;lat;lon;timestamp;temperature;humidity
72940;DHT22;61094;51.154;13.570;2022-12-20T00:00:55;1.00;99.90
72940;DHT22;61094;51.154;13.570;2022-12-20T00:02:57;1.00;99.90
72940;DHT22;61094;51.154;13.570;2022-12-20T00:05:00;1.00;99.90
72940;DHT22;61094;51.154;13.570;2022-12-20T00:07:02;1.00;99.90
72940;DHT22;61094;51.154;13.570;2022-12-20T00:09:05;1.00;99.90
72940;DHT22;61094;51.154;13.570;2022-12-20T00:11:08;1.00;99.90
72940;DHT22;61094;51.154;13.570;2022-12-20T00:13:11;1.10;99.90
72940;DHT22;61094;51.154;13.570;2022-12-20T00:15:12;1.10;99.90
72940;DHT22;61094;51.154;13.570;2022-12-20T00:17:14;1.10;99.90
72940;DHT22;61094;51.154;13.570;2022-12-20T00:19:16;1.10;99.90
72940;DHT22;61094;51.154;13.570;2022-12-20T00:21:19;1.00;99.90
72940;DHT22;61094;51.154;13.570;2022-12-20T00:23:21;1.00;99.90
72940;DHT22;61094;51.154;13.570;2022-12-20T00:25:22;1.10;99.90
72940;DHT22;61094;51.154;13.570;2022-12-20T00:27:24;1.10;99.90
72940;DHT22;61094;51.154;13.570;2022-12-20T00:29:26;1.10;99.90
72940;DHT22;61094;51.154;13.570;2022-12-20T00:31:28;1.10;99.90
72940;DHT22;61094;51.154;13.570;2022-12-20T00:33:31;1.10;99.90
72940;DHT22;61094;51.154;13.570;2022-12-20T00:35:33;1.10;99.90
72940;DHT22;61094;51.154;13.570;2022-12-20T00:37:36;1.10;99.90
72940;DHT22;61094;51.154;13.570;2022-12-20T00:39:38;1.10;99.90
72940;DHT22;61094;51.154;13.570;2022-12-20T00:41:40;1.10;99.90
72940;DHT22;61094;51.154;13.570;2022-12-20T00:43:42;1.10;99.90
72940;DHT22;61094;51.154;13.570;2022-12-20T00:45:44;1.10;99.90
72940;DHT22;61094;51.154;13.570;2022-12-20T00:47:46;1.10;99.90
72940;DHT22;61094;51.154;13.570;2022-12-20T00:49:47;1.10;99.90
72940;DHT22;61094;51.154;13.570;2022-12-20T00:51:49;1.10;99.90
72940;DHT22;61094;51.154;13.570;2022-12-20T00:53:53;1.10;99.90
72940;DHT22;61094;51.154;13.570;2022-12-20T00:55:55;1.10;99.90
72940;DHT22;61094;51.154;13.570;2022-12-20T00:57:57;1.10;99.90
72940;DHT22;61094;51.154;13.570;2022-12-20T00:59:59;1.00;99.90
72940;DHT22;61094;51.154;13.570;2022-12-20T01:02:01;1.10;99.90
72940;DHT22;61094;51.154;13.570;2022-12-20T01:04:03;1.10;99.90
72940;DHT22;61094;51.154;13.570;2022-12-20T01:06:05;1.10;99.90
72940;DHT22;61094;51.154;13.570;2022-12-20T01:08:06;1.10;99.90
72940;DHT22;61094;51.154;13.570;2022-12-20T01:10:10;1.10;99.90
72940;DHT22;61094;51.154;13.570;2022-12-20T01:12:12;1.10;99.90
72940;DHT22;61094;51.154;13.570;2022-12-20T01:14:15;1.10;99.90
72940;DHT22;61094;51.154;13.570;2022-12-20T01:16:18;1.10;99.90
72940;DHT22;61094;51.154;13.570;2022-12-20T01:18:21;1.20;99.90
72940;DHT22;61094;51.154;13.570;2022-12-20T01:20:23;1.20;99.90
72940;DHT22;61094;51.154;13.570;2022-12-20T01:22:25;1.20;99.90
72940;DHT22;61094;51.154;13.570;2022-12-20T01:24:27;1.20;99.90
72940;DHT22;61094;51.154;13.570;2022-12-20T01:26:30;1.30;99.90
72940;DHT22;61094;51.154;13.570;2022-12-20T01:28:32;1.30;99.90
72940;DHT22;61094;51.154;13.570;2022-12-20T01:30:34;1.30;99.90
72940;DHT22;61094;51.154;13.570;2022-12-20T01:32:35;1.30;99.90
72940;DHT22;61094;51.154;13.570;2022-12-20T01:34:40;1.30;99.90
72940;DHT22;61094;51.154;13.570;2022-12-20T01:36:44;1.30;99.90
72940;DHT22;61094;51.154;13.570;2022-12-20T01:38:46;1.30;99.90
72940;DHT22;61094;51.154;13.570;2022-12-20T01:40:48;1.40;99.90
72940;DHT22;61094;51.154;13.570;2022-12-20T01:42:51;1.40;99.90
72940;DHT22;61094;51.154;13.570;2022-12-20T01:44:56;1.40;99.90
72940;DHT22;61094;51.154;13.570;2022-12-20T01:46:58;1.40;99.90
72940;DHT22;61094;51.154;13.570;2022-12-20T01:49:04;1.40;99.90
72940;DHT22;61094;51.154;13.570;2022-12-20T01:51:06;1.40;99.90
72940;DHT22;61094;51.154;13.570;2022-12-20T01:53:08;1.40;99.90
72940;DHT22;61094;51.154;13.570;2022-12-20T01:55:14;1.40;99.90
72940;DHT22;61094;51.154;13.570;2022-12-20T01:57:21;1.40;99.90
72940;DHT22;61094;51.154;13.570;2022-12-20T01:59:26;1.50;99.90
72940;DHT22;61094;51.154;13.570;2022-12-20T02:01:29;1.50;99.90
72940;DHT22;61094;51.154;13.570;2022-12-20T02:03:31;1.50;99.90
72940;DHT22;61094;51.154;13.570;2022-12-20T02:05:35;1.50;99.90
72940;DHT22;61094;51.154;13.570;2022-12-20T02:07:37;1.50;99.90
72940;DHT22;61094;51.154;13.570;2022-12-20T02:09:39;1.50;99.90
72940;DHT22;61094;51.154;13.570;2022-12-20T02:11:58;1.50;99.90
72940;DHT22;61094;51.154;13.570;2022-12-20T02:14:10;1.50;99.90
72940;DHT22;61094;51.154;13.570;2022-12-20T02:16:22;1.50;99.90
72940;DHT22;61094;51.154;13.570;2022-12-20T02:18:29;1.50;99.90
72940;DHT22;61094;51.154;13.570;2022-12-20T02:20:56;1.50;99.90
72940;DHT22;61094;51.154;13.570;2022-12-20T02:23:23;1.50;99.90
72940;DHT22;61094;51.154;13.570;2022-12-20T02:25:43;1.60;99.90
72940;DHT22;61094;51.154;13.570;2022-12-20T02:27:53;1.60;99.90
72940;DHT22;61094;51.154;13.570;2022-12-20T02:30:07;1.60;99.90
72940;DHT22;61094;51.154;13.570;2022-12-20T02:32:15;1.60;99.90
72940;DHT22;61094;51.154;13.570;2022-12-20T02:34:20;1.50;99.90
72940;DHT22;61094;51.154;13.570;2022-12-20T02:36:24;1.50;99.90
72940;DHT22;61094;51.154;13.570;2022-12-20T02:38:29;1.50;99.90
72940;DHT22;61094;51.154;13.570;2022-12-20T02:40:37;1.50;99.90
72940;DHT22;61094;51.154;13.570;2022-12-20T02:42:41;1.50;99.90
72940;DHT22;61094;51.154;13.570;2022-12-20T02:44:45;1.60;99.90
72940;DHT22;61094;51.154;13.570;2022-12-20T02:47:12;1.60;99.90
72940;DHT22;61094;51.154;13.570;2022-12-20T02:49:18;1.60;99.90
72940;DHT22;61094;51.154;13.570;2022-12-20T02:51:22;1.50;99.90
72940;DHT22;61094;51.154;13.570;2022-12-20T02:53:25;1.50;99.90
72940;DHT22;61094;51.154;13.570;2022-12-20T02:55:36;1.50;99.90
72940;DHT22;61094;51.154;13.570;2022-12-20T02:57:44;1.50;99.90
72940;DHT22;61094;51.154;13.570;2022-12-20T02:59:51;1.50;99.90
72940;DHT22;61094;51.154;13.570;2022-12-20T03:01:56;1.50;99.90
72940;DHT22;61094;51.154;13.570;2022-12-20T03:04:00;1.50;99.90
72940;DHT22;61094;51.154;13.570;2022-12-20T03:06:01;1.50;99.90
72940;DHT22;61094;51.154;13.570;2022-12-20T03:08:04;1.50;99.90
72940;DHT22;61094;51.154;13.570;2022-12-20T03:10:07;1.50;99.90
72940;DHT22;61094;51.154;13.570;2022-12-20T03:12:10;1.40;99.90
72940;DHT22;61094;51.154;13.570;2022-12-20T03:14:12;1.40;99.90
72940;DHT22;61094;51.154;13.570;2022-12-20T03:16:14;1.50;99.90
72940;DHT22;61094;51.154;13.570;2022-12-20T03:18:16;1.40;99.90
72940;DHT22;61094;51.154;13.570;2022-12-20T03:20:19;1.40;99.90
72940;DHT22;61094;51.154;13.570;2022-12-20T03:22:21;1.50;99.90
72940;DHT22;61094;51.154;13.570;2022-12-20T03:24:24;1.50;99.90
72940;DHT22;61094;51.154;13.570;2022-12-20T03:26:27;1.50;99.90
72940;DHT22;61094;51.154;13.570;2022-12-20T03:28:32;1.50;99.90
72940;DHT22;61094;51.154;13.570;2022-12-20T03:30:34;1.50;99.90
72940;DHT22;61094;51.154;13.570;2022-12-20T03:32:36;1.50;99.90
72940;DHT22;61094;51.154;13.570;2022-12-20T03:34:38;1.50;99.90
72940;DHT22;61094;51.154;13.570;2022-12-20T03:36:41;1.50;99.90
72940;DHT22;61094;51.154;13.570;2022-12-20T03:38:43;1.50;99.90
72940;DHT22;61094;51.154;13.570;2022-12-20T03:40:45;1.50;99.90
72940;DHT22;61094;51.154;13.570;2022-12-20T03:42:50;1.50;99.90
72940;DHT22;61094;51.154;13.570;2022-12-20T03:44:52;1.50;99.90
72940;DHT22;61094;51.154;13.570;2022-12-20T03:46:54;1.50;99.90
72940;DHT22;61094;51.154;13.570;2022-12-20T03:48:56;1.50;99.90
72940;DHT22;61094;51.154;13.570;2022-12-20T03:50:58;1.50;99.90
72940;DHT22;61094;51.154;13.570;2022-12-20T03:53:02;1.50;99.90
72940;DHT22;61094;51.154;13.570;2022-12-20T03:55:05;1.50;99.90
72940;DHT22;61094;51.154;13.570;2022-12-20T03:57:13;1.50;99.90
72940;DHT22;61094;51.154;13.570;2022-12-20T03:59:15;1.50;99.90
72940;DHT22;61094;51.154;13.570;2022-12-20T04:01:19;1.50;99.90
72940;DHT22;61094;51.154;13.570;2022-12-20T04:03:22;1.50;99.90
72940;DHT22;61094;51.154;13.570;2022-12-20T04:05:23;1.50;99.90
72940;DHT22;61094;51.154;13.570;2022-12-20T04:07:25;1.50;99.90
72940;DHT22;61094;51.154;13.570;2022-12-20T04:09:29;1.50;99.90
72940;DHT22;61094;51.154;13.570;2022-12-20T04:11:38;1.50;99.90
72940;DHT22;61094;51.154;13.570;2022-12-20T04:13:46;1.50;99.90
72940;DHT22;61094;51.154;13.570;2022-12-20T04:15:48;1.60;99.90
72940;DHT22;61094;51.154;13.570;2022-12-20T04:17:53;1.50;99.90
72940;DHT22;61094;51.154;13.570;2022-12-20T04:19:55;1.60;99.90
72940;DHT22;61094;51.154;13.570;2022-12-20T04:21:57;1.60;99.90
72940;DHT22;61094;51.154;13.570;2022-12-20T04:24:02;1.60;99.90
72940;DHT22;61094;51.154;13.570;2022-12-20T04:26:22;1.60;99.90
72940;DHT22;61094;51.154;13.570;2022-12-20T04:28:24;1.60;99.90
72940;DHT22;61094;51.154;13.570;2022-12-20T04:30:30;1.60;99.90
72940;DHT22;61094;51.154;13.570;2022-12-20T04:32:32;1.60;99.90
72940;DHT22;61094;51.154;13.570;2022-12-20T04:34:35;1.60;99.90
72940;DHT22;61094;51.154;13.570;2022-12-20T04:36:37;1.60;99.90
72940;DHT22;61094;51.154;13.570;2022-12-20T04:38:43;1.60;99.90
72940;DHT22;61094;51.154;13.570;2022-12-20T04:40:47;1.60;99.90
72940;DHT22;61094;51.154;13.570;2022-12-20T04:42:51;1.60;99.90
72940;DHT22;61094;51.154;13.570;2022-12-20T04:44:53;1.50;99.90
72940;DHT22;61094;51.154;13.570;2022-12-20T04:47:02;1.50;99.90
72940;DHT22;61094;51.154;13.570;2022-12-20T04:49:04;1.50;99.90
72940;DHT22;61094;51.154;13.570;2022-12-20T04:51:08;1.50;99.90
72940;DHT22;61094;51.154;13.570;2022-12-20T04:53:10;1.60;99.90
72940;DHT22;61094;51.154;13.570;2022-12-20T04:55:30;1.60;99.90
72940;DHT22;61094;51.154;13.570;2022-12-20T04:57:32;1.50;99.90
72940;DHT22;61094;51.154;13.570;2022-12-20T04:59:36;1.50;99.90
72940;DHT22;61094;51.154;13.570;2022-12-20T05:01:38;1.50;99.90
72940;DHT22;61094;51.154;13.570;2022-12-20T05:03:40;1.50;99.90
72940;DHT22;61094;51.154;13.570;2022-12-20T05:05:42;1.50;99.90
72940;DHT22;61094;51.154;13.570;2022-12-20T05:07:44;1.50;99.90
72940;DHT22;61094;51.154;13.570;2022-12-20T05:09:46;1.50;99.90
72940;DHT22;61094;51.154;13.570;2022-12-20T05:11:49;1.50;99.90
72940;DHT22;61094;51.154;13.570;2022-12-20T05:13:51;1.50;99.90
72940;DHT22;61094;51.154;13.570;2022-12-20T05:15:56;1.50;99.90
72940;DHT22;61094;51.154;13.570;2022-12-20T05:18:03;1.50;99.90
72940;DHT22;61094;51.154;13.570;2022-12-20T05:20:17;1.60;99.90
72940;DHT22;61094;51.154;13.570;2022-12-20T05:22:20;1.60;99.90
72940;DHT22;61094;51.154;13.570;2022-12-20T05:24:44;1.60;99.90
72940;DHT22;61094;51.154;13.570;2022-12-20T05:27:06;1.60;99.90
72940;DHT22;61094;51.154;13.570;2022-12-20T05:29:08;1.60;99.90
72940;DHT22;61094;51.154;13.570;2022-12-20T05:31:13;1.60;99.90
72940;DHT22;61094;51.154;13.570;2022-12-20T05:33:15;1.60;99.90
72940;DHT22;61094;51.154;13.570;2022-12-20T05:35:18;1.60;99.90
72940;DHT22;61094;51.154;13.570;2022-12-20T05:37:24;1.60;99.90
72940;DHT22;61094;51.154;13.570;2022-12-20T05:39:27;1.60;99.90
72940;DHT22;61094;51.154;13.570;2022-12-20T05:41:35;1.60;99.90
72940;DHT22;61094;51.154;13.570;2022-12-20T05:43:37;1.60;99.90
72940;DHT22;61094;51.154;13.570;2022-12-20T05:45:40;1.60;99.90
72940;DHT22;61094;51.154;13.570;2022-12-20T05:47:49;1.60;99.90
72940;DHT22;61094;51.154;13.570;2022-12-20T05:49:50;1.70;99.90
72940;DHT22;61094;51.154;13.570;2022-12-20T05:51:53;1.70;99.90
72940;DHT22;61094;51.154;13.570;2022-12-20T05:53:57;1.70;99.90
72940;DHT22;61094;51.154;13.570;2022-12-20T05:56:16;1.70;99.90
72940;DHT22;61094;51.154;13.570;2022-12-20T05:58:18;1.70;99.90
72940;DHT22;61094;51.154;13.570;2022-12-20T06:00:28;1.80;99.90
72940;DHT22;61094;51.154;13.570;2022-12-20T06:02:30;1.80;99.90
72940;DHT22;61094;51.154;13.570;2022-12-20T06:04:38;1.80;99.90
72940;DHT22;61094;51.154;13.570;2022-12-20T06:06:47;1.80;99.90
72940;DHT22;61094;51.154;13.570;2022-12-20T06:08:52;1.80;99.90
72940;DHT22;61094;51.154;13.570;2022-12-20T06:11:07;1.80;99.90
72940;DHT22;61094;51.154;13.570;2022-12-20T06:13:21;1.80;99.90
72940;DHT22;61094;51.154;13.570;2022-12-20T06:15:25;1.80;99.90
72940;DHT22;61094;51.154;13.570;2022-12-20T06:17:27;1.90;99.90
72940;DHT22;61094;51.154;13.570;2022-12-20T06:19:28;1.90;99.90
72940;DHT22;61094;51.154;13.570;2022-12-20T06:21:33;1.90;99.90
72940;DHT22;61094;51.154;13.570;2022-12-20T06:23:35;1.90;99.90
72940;DHT22;61094;51.154;13.570;2022-12-20T06:25:41;1.90;99.90
72940;DHT22;61094;51.154;13.570;2022-12-20T06:27:44;1.90;99.90
72940;DHT22;61094;51.154;13.570;2022-12-20T06:29:50;1.90;99.90
72940;DHT22;61094;51.154;13.570;2022-12-20T06:31:56;1.90;99.90
72940;DHT22;61094;51.154;13.570;2022-12-20T06:34:00;2.00;99.90
72940;DHT22;61094;51.154;13.570;2022-12-20T06:36:07;1.90;99.90
72940;DHT22;61094;51.154;13.570;2022-12-20T06:38:10;2.00;99.90
72940;DHT22;61094;51.154;13.570;2022-12-20T06:40:13;1.90;99.90
72940;DHT22;61094;51.154;13.570;2022-12-20T06:42:15;2.00;99.90
72940;DHT22;61094;51.154;13.570;2022-12-20T06:44:18;2.00;99.90
72940;DHT22;61094;51.154;13.570;2022-12-20T06:46:20;2.00;99.90
72940;DHT22;61094;51.154;13.570;2022-12-20T06:48:22;2.00;99.90
72940;DHT22;61094;51.154;13.570;2022-12-20T06:50:24;2.00;99.90
72940;DHT22;61094;51.154;13.570;2022-12-20T06:52:26;2.00;99.90
72940;DHT22;61094;51.154;13.570;2022-12-20T06:54:30;2.00;99.90
72940;DHT22;61094;51.154;13.570;2022-12-20T06:56:32;2.00;99.90
72940;DHT22;61094;51.154;13.570;2022-12-20T06:58:34;2.00;99.90
72940;DHT22;61094;51.154;13.570;2022-12-20T07:00:36;2.00;99.90
72940;DHT22;61094;51.154;13.570;2022-12-20T07:02:38;2.00;99.90
72940;DHT22;61094;51.154;13.570;2022-12-20T07:04:40;2.00;99.90
72940;DHT22;61094;51.154;13.570;2022-12-20T07:06:42;2.00;99.90
72940;DHT22;61094;51.154;13.570;2022-12-20T07:08:43;2.00;99.90
72940;DHT22;61094;51.154;13.570;2022-12-20T07:10:47;2.00;99.90
72940;DHT22;61094;51.154;13.570;2022-12-20T07:12:49;2.00;99.90
72940;DHT22;61094;51.154;13.570;2022-12-20T07:14:50;1.90;99.90
72940;DHT22;61094;51.154;13.570;2022-12-20T07:16:52;1.90;99.90
72940;DHT22;61094;51.154;13.570;2022-12-20T07:18:54;1.90;99.90
72940;DHT22;61094;51.154;13.570;2022-12-20T07:20:58;1.90;99.90
72940;DHT22;61094;51.154;13.570;2022-12-20T07:23:00;1.90;99.90
72940;DHT22;61094;51.154;13.570;2022-12-20T07:25:02;1.90;99.90
72940;DHT22;61094;51.154;13.570;2022-12-20T07:27:06;1.90;99.90
72940;DHT22;61094;51.154;13.570;2022-12-20T07:29:08;1.90;99.90
72940;DHT22;61094;51.154;13.570;2022-12-20T07:31:09;2.00;99.90
72940;DHT22;61094;51.154;13.570;2022-12-20T07:33:11;1.90;99.90
72940;DHT22;61094;51.154;13.570;2022-12-20T07:35:13;1.90;99.90
72940;DHT22;61094;51.154;13.570;2022-12-20T07:37:15;2.00;99.90
72940;DHT22;61094;51.154;13.570;2022-12-20T07:39:17;1.90;99.90
72940;DHT22;61094;51.154;13.570;2022-12-20T07:41:19;1.90;99.90
72940;DHT22;61094;51.154;13.570;2022-12-20T07:43:22;1.90;99.90
72940;DHT22;61094;51.154;13.570;2022-12-20T07:45:24;1.90;99.90
72940;DHT22;61094;51.154;13.570;2022-12-20T07:47:27;2.00;99.90
72940;DHT22;61094;51.154;13.570;2022-12-20T07:49:29;2.00;99.90
72940;DHT22;61094;51.154;13.570;2022-12-20T07:51:35;2.00;99.90
72940;DHT22;61094;51.154;13.570;2022-12-20T07:53:41;2.00;99.90
72940;DHT22;61094;51.154;13.570;2022-12-20T07:55:45;2.00;99.90
72940;DHT22;61094;51.154;13.570;2022-12-20T07:57:49;2.00;99.90
72940;DHT22;61094;51.154;13.570;2022-12-20T07:59:53;2.10;99.90
72940;DHT22;61094;51.154;13.570;2022-12-20T08:01:56;2.10;99.90
72940;DHT22;61094;51.154;13.570;2022-12-20T08:04:02;2.10;99.90
72940;DHT22;61094;51.154;13.570;2022-12-20T08:06:06;2.10;99.90
72940;DHT22;61094;51.154;13.570;2022-12-20T08:08:09;2.20;99.90
72940;DHT22;61094;51.154;13.570;2022-12-20T08:10:11;2.20;99.90
72940;DHT22;61094;51.154;13.570;2022-12-20T08:12:16;2.20;99.90
72940;DHT22;61094;51.154;13.570;2022-12-20T08:14:18;2.30;99.90
72940;DHT22;61094;51.154;13.570;2022-12-20T08:16:22;2.30;99.90
72940;DHT22;61094;51.154;13.570;2022-12-20T08:18:23;2.30;99.90
72940;DHT22;61094;51.154;13.570;2022-12-20T08:20:25;2.40;99.90
72940;DHT22;61094;51.154;13.570;2022-12-20T08:22:27;2.40;99.90
72940;DHT22;61094;51.154;13.570;2022-12-20T08:24:29;2.40;99.90
72940;DHT22;61094;51.154;13.570;2022-12-20T08:26:31;2.40;99.90
72940;DHT22;61094;51.154;13.570;2022-12-20T08:28:37;2.40;99.90
72940;DHT22;61094;51.154;13.570;2022-12-20T08:30:39;2.30;99.90
72940;DHT22;61094;51.154;13.570;2022-12-20T08:32:42;2.30;99.90
72940;DHT22;61094;51.154;13.570;2022-12-20T08:34:44;2.30;99.90
72940;DHT22;61094;51.154;13.570;2022-12-20T08:36:45;2.30;99.90
72940;DHT22;61094;51.154;13.570;2022-12-20T08:38:47;2.30;99.90
72940;DHT22;61094;51.154;13.570;2022-12-20T08:40:49;2.30;99.90
72940;DHT22;61094;51.154;13.570;2022-12-20T08:42:51;2.30;99.90
72940;DHT22;61094;51.154;13.570;2022-12-20T08:44:52;2.30;99.90
72940;DHT22;61094;51.154;13.570;2022-12-20T08:46:54;2.40;99.90
72940;DHT22;61094;51.154;13.570;2022-12-20T08:48:57;2.40;99.90
72940;DHT22;61094;51.154;13.570;2022-12-20T08:51:00;2.50;99.90
72940;DHT22;61094;51.154;13.570;2022-12-20T08:53:02;2.60;99.90
72940;DHT22;61094;51.154;13.570;2022-12-20T08:55:05;2.70;99.90
72940;DHT22;61094;51.154;13.570;2022-12-20T08:57:07;2.90;99.90
72940;DHT22;61094;51.154;13.570;2022-12-20T08:59:09;3.10;99.90
72940;DHT22;61094;51.154;13.570;2022-12-20T09:01:13;3.10;99.90
72940;DHT22;61094;51.154;13.570;2022-12-20T09:03:15;3.10;99.90
72940;DHT22;61094;51.154;13.570;2022-12-20T09:05:18;3.10;99.90
72940;DHT22;61094;51.154;13.570;2022-12-20T09:07:20;3.00;99.90
72940;DHT22;61094;51.154;13.570;2022-12-20T09:09:22;3.00;99.90
72940;DHT22;61094;51.154;13.570;2022-12-20T09:11:24;2.90;99.90
72940;DHT22;61094;51.154;13.570;2022-12-20T09:13:27;2.80;99.90
72940;DHT22;61094;51.154;13.570;2022-12-20T09:15:28;2.70;99.90
72940;DHT22;61094;51.154;13.570;2022-12-20T09:17:31;2.70;99.90
72940;DHT22;61094;51.154;13.570;2022-12-20T09:19:33;2.60;99.90
72940;DHT22;61094;51.154;13.570;2022-12-20T09:21:36;2.60;99.90
72940;DHT22;61094;51.154;13.570;2022-12-20T09:23:38;2.50;99.90
72940;DHT22;61094;51.154;13.570;2022-12-20T09:25:40;2.50;99.90
72940;DHT22;61094;51.154;13.570;2022-12-20T09:27:42;2.50;99.90
72940;DHT22;61094;51.154;13.570;2022-12-20T09:29:44;2.50;99.90
72940;DHT22;61094;51.154;13.570;2022-12-20T09:31:48;2.60;99.90
72940;DHT22;61094;51.154;13.570;2022-12-20T09:33:52;2.80;99.90
72940;DHT22;61094;51.154;13.570;2022-12-20T09:35:54;3.10;99.90
72940;DHT22;61094;51.154;13.570;2022-12-20T09:37:57;3.30;99.90
72940;DHT22;61094;51.154;13.570;2022-12-20T09:39:59;3.40;99.90
72940;DHT22;61094;51.154;13.570;2022-12-20T09:42:06;3.30;99.90
72940;DHT22;61094;51.154;13.570;2022-12-20T09:44:13;3.40;99.90
72940;DHT22;61094;51.154;13.570;2022-12-20T09:46:15;3.30;99.90
72940;DHT22;61094;51.154;13.570;2022-12-20T09:48:20;3.30;99.90
72940;DHT22;61094;51.154;13.570;2022-12-20T09:50:35;3.20;99.90
72940;DHT22;61094;51.154;13.570;2022-12-20T09:52:50;3.20;99.90
72940;DHT22;61094;51.154;13.570;2022-12-20T09:55:00;3.20;99.90
72940;DHT22;61094;51.154;13.570;2022-12-20T09:57:10;3.20;99.90
72940;DHT22;61094;51.154;13.570;2022-12-20T09:59:17;3.20;99.90
72940;DHT22;61094;51.154;13.570;2022-12-20T10:01:21;3.10;99.90
72940;DHT22;61094;51.154;13.570;2022-12-20T10:03:28;3.10;99.90
72940;DHT22;61094;51.154;13.570;2022-12-20T10:05:35;3.00;99.90
72940;DHT22;61094;51.154;13.570;2022-12-20T10:07:44;3.00;99.90
72940;DHT22;61094;51.154;13.570;2022-12-20T10:10:06;2.90;99.90
72940;DHT22;61094;51.154;13.570;2022-12-20T10:12:18;2.90;99.90
72940;DHT22;61094;51.154;13.570;2022-12-20T10:14:35;2.80;99.90
72940;DHT22;61094;51.154;13.570;2022-12-20T10:16:41;2.80;99.90
72940;DHT22;61094;51.154;13.570;2022-12-20T10:18:53;2.70;99.90
72940;DHT22;61094;51.154;13.570;2022-12-20T10:20:59;2.60;99.90
72940;DHT22;61094;51.154;13.570;2022-12-20T10:23:10;2.60;99.90
72940;DHT22;61094;51.154;13.570;2022-12-20T10:25:19;2.50;99.90
72940;DHT22;61094;51.154;13.570;2022-12-20T10:27:23;2.50;99.90
72940;DHT22;61094;51.154;13.570;2022-12-20T10:29:24;2.50;99.90
72940;DHT22;61094;51.154;13.570;2022-12-20T10:31:27;2.50;99.90
72940;DHT22;61094;51.154;13.570;2022-12-20T10:33:29;2.40;99.90
72940;DHT22;61094;51.154;13.570;2022-12-20T10:35:37;2.40;99.90
72940;DHT22;61094;51.154;13.570;2022-12-20T10:37:56;2.40;99.90
72940;DHT22;61094;51.154;13.570;2022-12-20T10:39:58;2.40;99.90
72940;DHT22;61094;51.154;13.570;2022-12-20T10:42:01;2.40;99.90
72940;DHT22;61094;51.154;13.570;2022-12-20T10:44:14;2.40;99.90
72940;DHT22;61094;51.154;13.570;2022-12-20T10:46:17;2.40;99.90
72940;DHT22;61094;51.154;13.570;2022-12-20T10:48:25;2.50;99.90
72940;DHT22;61094;51.154;13.570;2022-12-20T10:50:29;2.50;99.90
72940;DHT22;61094;51.154;13.570;2022-12-20T10:52:31;2.50;99.90
72940;DHT22;61094;51.154;13.570;2022-12-20T10:54:34;2.50;99.90
72940;DHT22;61094;51.154;13.570;2022-12-20T10:56:36;2.50;99.90
72940;DHT22;61094;51.154;13.570;2022-12-20T10:58:39;2.60;99.90
72940;DHT22;61094;51.154;13.570;2022-12-20T11:00:42;2.50;99.90
72940;DHT22;61094;51.154;13.570;2022-12-20T11:03:01;2.50;99.90
72940;DHT22;61094;51.154;13.570;2022-12-20T11:05:18;2.60;99.90
72940;DHT22;61094;51.154;13.570;2022-12-20T11:07:23;2.60;99.90
72940;DHT22;61094;51.154;13.570;2022-12-20T11:09:29;2.60;99.90
72940;DHT22;61094;51.154;13.570;2022-12-20T11:11:31;2.60;99.90
72940;DHT22;61094;51.154;13.570;2022-12-20T11:13:32;2.70;99.90
72940;DHT22;61094;51.154;13.570;2022-12-20T11:15:36;2.70;99.90
72940;DHT22;61094;51.154;13.570;2022-12-20T11:17:46;2.80;99.90
72940;DHT22;61094;51.154;13.570;2022-12-20T11:20:00;2.90;99.90
72940;DHT22;61094;51.154;13.570;2022-12-20T11:22:11;3.10;99.90
72940;DHT22;61094;51.154;13.570;2022-12-20T11:24:21;3.30;99.90
72940;DHT22;61094;51.154;13.570;2022-12-20T11:26:35;3.60;99.90
72940;DHT22;61094;51.154;13.570;2022-12-20T11:28:52;3.90;99.90
72940;DHT22;61094;51.154;13.570;2022-12-20T11:31:06;4.20;99.90
72940;DHT22;61094;51.154;13.570;2022-12-20T11:33:25;4.30;99.90
72940;DHT22;61094;51.154;13.570;2022-12-20T11:35:39;4.50;99.90
72940;DHT22;61094;51.154;13.570;2022-12-20T11:37:48;4.50;99.90
72940;DHT22;61094;51.154;13.570;2022-12-20T11:40:04;4.50;99.90
72940;DHT22;61094;51.154;13.570;2022-12-20T11:42:11;4.40;99.90
72940;DHT22;61094;51.154;13.570;2022-12-20T11:44:23;4.30;99.90
72940;DHT22;61094;51.154;13.570;2022-12-20T11:46:43;4.20;99.90
72940;DHT22;61094;51.154;13.570;2022-12-20T11:49:14;4.00;99.90
72940;DHT22;61094;51.154;13.570;2022-12-20T11:51:21;3.90;99.90
72940;DHT22;61094;51.154;13.570;2022-12-20T11:53:30;3.70;99.90
72940;DHT22;61094;51.154;13.570;2022-12-20T11:55:35;3.70;99.90
72940;DHT22;61094;51.154;13.570;2022-12-20T11:57:44;3.50;99.90
72940;DHT22;61094;51.154;13.570;2022-12-20T11:59:49;3.50;99.90
72940;DHT22;61094;51.154;13.570;2022-12-20T12:02:01;3.40;99.90
72940;DHT22;61094;51.154;13.570;2022-12-20T12:04:11;3.40;99.90
72940;DHT22;61094;51.154;13.570;2022-12-20T12:06:18;3.40;99.90
72940;DHT22;61094;51.154;13.570;2022-12-20T12:08:27;3.30;99.90
72940;DHT22;61094;51.154;13.570;2022-12-20T12:10:33;3.20;99.90
72940;DHT22;61094;51.154;13.570;2022-12-20T12:12:39;3.20;99.90
72940;DHT22;61094;51.154;13.570;2022-12-20T12:14:49;3.10;99.90
72940;DHT22;61094;51.154;13.570;2022-12-20T12:16:55;3.00;99.90
72940;DHT22;61094;51.154;13.570;2022-12-20T12:18:58;3.00;99.90
72940;DHT22;61094;51.154;13.570;2022-12-20T12:21:05;2.90;99.90
72940;DHT22;61094;51.154;13.570;2022-12-20T12:23:12;2.90;99.90
72940;DHT22;61094;51.154;13.570;2022-12-20T12:25:17;2.80;99.90
72940;DHT22;61094;51.154;13.570;2022-12-20T12:27:22;2.80;99.90
72940;DHT22;61094;51.154;13.570;2022-12-20T12:29:25;2.70;99.90
72940;DHT22;61094;51.154;13.570;2022-12-20T12:31:33;2.70;99.90
72940;DHT22;61094;51.154;13.570;2022-12-20T12:33:43;2.70;99.90
72940;DHT22;61094;51.154;13.570;2022-12-20T12:36:05;2.70;99.90
72940;DHT22;61094;51.154;13.570;2022-12-20T12:38:39;2.60;99.90
72940;DHT22;61094;51.154;13.570;2022-12-20T12:41:02;2.60;99.90
72940;DHT22;61094;51.154;13.570;2022-12-20T12:43:30;2.60;99.90
72940;DHT22;61094;51.154;13.570;2022-12-20T12:45:43;2.60;99.90
72940;DHT22;61094;51.154;13.570;2022-12-20T12:47:49;2.60;99.90
72940;DHT22;61094;51.154;13.570;2022-12-20T12:49:55;2.60;99.90
72940;DHT22;61094;51.154;13.570;2022-12-20T12:51:58;2.50;99.90
72940;DHT22;61094;51.154;13.570;2022-12-20T12:54:15;2.50;99.90
72940;DHT22;61094;51.154;13.570;2022-12-20T12:56:37;2.50;99.90
72940;DHT22;61094;51.154;13.570;2022-12-20T12:58:40;2.60;99.90
72940;DHT22;61094;51.154;13.570;2022-12-20T13:00:55;2.50;99.90
72940;DHT22;61094;51.154;13.570;2022-12-20T13:02:57;2.60;99.90
72940;DHT22;61094;51.154;13.570;2022-12-20T13:07:42;2.60;99.90
72940;DHT22;61094;51.154;13.570;2022-12-20T13:09:44;2.60;99.90
72940;DHT22;61094;51.154;13.570;2022-12-20T13:11:46;2.60;99.90
72940;DHT22;61094;51.154;13.570;2022-12-20T13:13:48;2.60;99.90